Time;durP1;ratioP1;P1;durP2;ratioP2;P2;SDS_P1;SDS_P2;PMS_P1;PMS_P2;Temp;Humidity;BMP_temperature;BMP_pressure;BME280_temperature;BME280_humidity;BME280_pressure;Samples;Min_cycle;Max_cycle;Signal;HPM_P1;HPM_P2
2022/01/05 00:00:17;;;;;;;;;;;;;;;26.61;60.63;96296.27;617690;229;67079;-65
2022/01/05 00:02:45;;;;;;;;;;;;;;;26.60;61.44;96300.09;617723;229;64937;-65
2022/01/05 00:05:12;;;;;;;;;;;;;;;26.58;60.67;96296.92;617690;229;67302;-65
2022/01/05 00:07:39;;;;;;;;;;;;;;;26.59;60.17;96297.70;617679;229;67059;-65
2022/01/05 00:10:07;;;;;;;;;;;;;;;26.59;59.99;96295.02;617661;229;65021;-65
2022/01/05 00:12:35;;;;;;;;;;;;;;;26.58;60.29;96291.53;617669;229;64954;-65
2022/01/05 00:15:02;;;;;;;;;;;;;;;26.58;60.54;96296.92;617754;229;65276;-63
2022/01/05 00:17:30;;;;;;;;;;;;;;;26.59;60.79;96303.09;617452;229;63803;-63
2022/01/05 00:19:57;;;;;;;;;;;;;;;26.56;60.44;96291.84;617688;229;67236;-63
2022/01/05 00:22:25;;;;;;;;;;;;;;;26.55;59.96;96289.48;617638;229;67341;-63
2022/01/05 00:24:52;;;;;;;;;;;;;;;26.56;60.45;96291.06;617696;229;65052;-63
2022/01/05 00:27:20;;;;;;;;;;;;;;;26.56;59.93;96293.75;617739;229;67057;-63
2022/01/05 00:29:49;;;;;;;;;;;;;;;26.53;59.87;96292.50;617630;229;66906;-64
2022/01/05 00:32:17;;;;;;;;;;;;;;;26.55;59.87;96300.27;617702;229;65253;-63
2022/01/05 00:34:44;;;;;;;;;;;;;;;26.56;59.82;96301.84;617666;229;67229;-63
2022/01/05 00:37:11;;;;;;;;;;;;;;;26.53;59.94;96292.50;617669;229;67091;-65
2022/01/05 00:39:39;;;;;;;;;;;;;;;26.54;59.89;96298.67;617762;229;64945;-65
2022/01/05 00:42:07;;;;;;;;;;;;;;;26.54;60.33;96304.06;617676;229;66913;-65
2022/01/05 00:44:34;;;;;;;;;;;;;;;26.51;59.83;96302.02;617655;229;67111;-65
2022/01/05 00:47:02;;;;;;;;;;;;;;;26.52;61.69;96298.23;617688;229;65083;-65
2022/01/05 00:49:29;;;;;;;;;;;;;;;26.51;60.21;96296.63;617677;229;67216;-65
2022/01/05 00:51:57;;;;;;;;;;;;;;;26.50;60.07;96295.81;617618;229;66864;-63
2022/01/05 00:54:24;;;;;;;;;;;;;;;26.50;60.13;96293.12;617730;229;62933;-63
2022/01/05 00:56:52;;;;;;;;;;;;;;;26.51;59.64;96293.93;617687;229;64954;-63
2022/01/05 00:59:19;;;;;;;;;;;;;;;26.48;59.65;96289.95;617669;229;67048;-63
2022/01/05 01:01:47;;;;;;;;;;;;;;;26.49;60.17;96282.66;617679;229;63879;-63
2022/01/05 01:04:14;;;;;;;;;;;;;;;26.48;60.30;96278.39;617696;229;67407;-64
2022/01/05 01:06:42;;;;;;;;;;;;;;;26.46;59.74;96286.78;617744;229;66837;-65
2022/01/05 01:09:09;;;;;;;;;;;;;;;26.47;59.53;96285.69;617683;229;65026;-63
2022/01/05 01:11:37;;;;;;;;;;;;;;;26.47;59.59;96287.59;617620;229;67215;-63
2022/01/05 01:14:04;;;;;;;;;;;;;;;26.46;59.75;96286.00;617690;229;66937;-63
2022/01/05 01:16:32;;;;;;;;;;;;;;;26.45;59.56;96273.65;617670;229;62933;-63
2022/01/05 01:18:59;;;;;;;;;;;;;;;26.44;59.32;96282.86;617726;229;64922;-63
2022/01/05 01:21:27;;;;;;;;;;;;;;;26.44;60.08;96282.86;617678;229;64965;-63
2022/01/05 01:23:55;;;;;;;;;;;;;;;26.43;59.33;96281.27;617679;229;65983;-63
2022/01/05 01:26:24;;;;;;;;;;;;;;;26.44;60.35;96280.16;617654;229;67209;-63
2022/01/05 01:28:52;;;;;;;;;;;;;;;26.42;59.85;96280.47;617693;229;66756;-63
2022/01/05 01:31:20;;;;;;;;;;;;;;;26.41;59.36;96281.59;617721;229;64915;-63
2022/01/05 01:33:48;;;;;;;;;;;;;;;26.41;59.53;96283.48;617664;229;65001;-63
2022/01/05 01:36:16;;;;;;;;;;;;;;;26.40;59.29;96284.60;617636;229;65271;-63
2022/01/05 01:38:44;;;;;;;;;;;;;;;26.40;59.58;96289.99;617653;229;62740;-63
2022/01/05 01:41:12;;;;;;;;;;;;;;;26.39;59.96;96283.03;617677;229;67293;-63
2022/01/05 01:43:40;;;;;;;;;;;;;;;26.38;60.00;96284.13;617707;229;67194;-63
2022/01/05 01:46:08;;;;;;;;;;;;;;;26.38;60.02;96287.61;617686;229;63632;-63
2022/01/05 01:48:36;;;;;;;;;;;;;;;26.34;59.46;96290.16;617708;229;65096;-63
2022/01/05 01:51:04;;;;;;;;;;;;;;;26.36;60.22;96284.47;618010;229;67055;-63
2022/01/05 01:53:31;;;;;;;;;;;;;;;26.34;59.74;96284.00;618841;229;64940;-63
2022/01/05 01:55:59;;;;;;;;;;;;;;;26.34;59.38;96276.70;618827;229;66744;-63
2022/01/05 01:58:27;;;;;;;;;;;;;;;26.37;59.73;96279.87;618885;229;66835;-63
2022/01/05 02:00:55;;;;;;;;;;;;;;;26.34;59.75;96282.09;618816;229;65052;-63
2022/01/05 02:03:22;;;;;;;;;;;;;;;26.32;59.42;96284.30;618839;229;67090;-63
2022/01/05 02:05:50;;;;;;;;;;;;;;;26.32;59.77;96273.53;618820;229;66747;-65
2022/01/05 02:08:17;;;;;;;;;;;;;;;26.32;59.49;96270.05;618837;229;65013;-65
2022/01/05 02:10:45;;;;;;;;;;;;;;;26.30;59.58;96267.70;618867;229;66736;-65
2022/01/05 02:13:12;;;;;;;;;;;;;;;26.31;59.35;96263.09;618826;229;64701;-65
2022/01/05 02:15:43;;;;;;;;;;;;;;;26.29;59.68;96259.93;618835;229;62735;-65
2022/01/05 02:20:40;;;;;;;;;;;;;;;26.27;59.86;96264.84;615250;228;65427;-65
2022/01/05 02:23:07;;;;;;;;;;;;;;;26.27;59.63;96251.37;618869;229;64830;-65
2022/01/05 02:25:35;;;;;;;;;;;;;;;26.26;59.66;96266.75;618786;229;67082;-63
2022/01/05 02:28:02;;;;;;;;;;;;;;;26.26;59.98;96263.27;618822;229;66926;-63
2022/01/05 02:30:31;;;;;;;;;;;;;;;26.26;59.59;96265.97;618804;229;65074;-63
2022/01/05 02:32:58;;;;;;;;;;;;;;;26.25;59.50;96262.48;618779;229;67306;-63
2022/01/05 02:35:26;;;;;;;;;;;;;;;26.25;59.72;96259.01;618872;229;67057;-65
2022/01/05 02:37:54;;;;;;;;;;;;;;;26.23;60.37;96253.15;618782;229;62661;-65
2022/01/05 02:40:22;;;;;;;;;;;;;;;26.21;59.39;96253.45;618837;229;67098;-65
2022/01/05 02:42:50;;;;;;;;;;;;;;;26.19;60.04;96250.32;618828;229;66759;-65
2022/01/05 02:45:18;;;;;;;;;;;;;;;26.17;59.61;96247.16;618790;229;65062;-65
2022/01/05 02:47:45;;;;;;;;;;;;;;;26.20;60.28;96240.34;618797;229;66999;-65
2022/01/05 02:50:13;;;;;;;;;;;;;;;26.18;59.78;96237.16;618831;229;67204;-65
2022/01/05 02:52:41;;;;;;;;;;;;;;;26.16;59.51;96242.08;617685;229;62938;-63
2022/01/05 02:55:09;;;;;;;;;;;;;;;26.17;59.57;96238.29;617707;229;67230;-63
2022/01/05 02:57:37;;;;;;;;;;;;;;;26.17;60.79;96233.69;617641;229;67061;-63
2022/01/05 03:00:09;;;;;;;;;;;;;;;26.17;59.89;96239.08;617657;229;65055;-63
2022/01/05 03:02:37;;;;;;;;;;;;;;;26.16;59.89;96231.31;617725;229;67307;-63
2022/01/05 03:05:05;;;;;;;;;;;;;;;26.16;60.19;96224.02;617710;229;66953;-63
2022/01/05 03:07:37;;;;;;;;;;;;;;;26.16;60.02;96232.09;617725;229;62545;-63
2022/01/05 03:10:01;;;;;;;;;;;;;;;26.13;60.17;96230.83;617544;228;64756;-63
2022/01/05 03:12:29;;;;;;;;;;;;;;;26.11;60.10;96221.53;617646;229;64933;-63
2022/01/05 03:14:56;;;;;;;;;;;;;;;26.12;60.14;96217.70;617710;229;63793;-63
2022/01/05 03:17:24;;;;;;;;;;;;;;;26.09;59.74;96219.14;617671;229;67237;-63
2022/01/05 03:19:51;;;;;;;;;;;;;;;26.09;60.68;96218.36;617717;229;67228;-63
2022/01/05 03:22:19;;;;;;;;;;;;;;;26.09;59.87;96223.75;617689;229;62647;-63
2022/01/05 03:24:46;;;;;;;;;;;;;;;26.10;60.07;96223.41;617696;229;65163;-63
2022/01/05 03:27:14;;;;;;;;;;;;;;;26.09;59.89;96223.75;617728;229;64961;-63
2022/01/05 03:29:41;;;;;;;;;;;;;;;26.09;60.74;96212.97;617680;229;63076;-63
2022/01/05 03:32:09;;;;;;;;;;;;;;;26.08;59.90;96208.69;617645;229;64966;-63
2022/01/05 03:34:38;;;;;;;;;;;;;;;26.07;61.13;96212.50;617609;229;67831;-63
2022/01/05 03:37:05;;;;;;;;;;;;;;;26.05;60.49;96212.81;617661;229;65069;-63
2022/01/05 03:39:33;;;;;;;;;;;;;;;26.04;60.40;96218.53;617703;229;67215;-63
2022/01/05 03:42:00;;;;;;;;;;;;;;;26.03;60.64;96206.98;617729;229;67714;-63
2022/01/05 03:44:27;;;;;;;;;;;;;;;26.03;60.23;96208.89;617686;229;64954;-63
2022/01/05 03:46:55;;;;;;;;;;;;;;;26.03;61.27;96206.98;617699;229;67177;-63
2022/01/05 03:49:23;;;;;;;;;;;;;;;26.01;60.63;96205.72;617692;229;64921;-65
2022/01/05 03:51:51;;;;;;;;;;;;;;;26.01;61.32;96205.72;618330;229;65806;-65
2022/01/05 03:54:19;;;;;;;;;;;;;;;26.00;60.91;96209.51;618828;229;67022;-65
2022/01/05 03:56:46;;;;;;;;;;;;;;;26.01;60.88;96203.03;618843;229;66966;-65
2022/01/05 03:59:14;;;;;;;;;;;;;;;25.99;60.69;96203.34;618793;229;65041;-65
2022/01/05 04:01:41;;;;;;;;;;;;;;;26.00;60.98;96196.05;618787;229;67155;-65
2022/01/05 04:04:09;;;;;;;;;;;;;;;25.98;60.80;96190.22;618788;229;67212;-65
2022/01/05 04:06:36;;;;;;;;;;;;;;;25.98;60.48;96184.84;618802;229;64943;-65
2022/01/05 04:09:04;;;;;;;;;;;;;;;25.96;60.75;96184.36;618786;229;67018;-67
2022/01/05 04:11:31;;;;;;;;;;;;;;;25.97;60.57;96194.79;618803;229;64914;-65
2022/01/05 04:13:59;;;;;;;;;;;;;;;25.94;62.01;96192.75;618788;229;62686;-65
2022/01/05 04:16:26;;;;;;;;;;;;;;;25.94;60.76;96200.04;618805;229;64927;-65
2022/01/05 04:18:54;;;;;;;;;;;;;;;25.96;60.67;96192.44;618830;229;64969;-65
2022/01/05 04:21:21;;;;;;;;;;;;;;;25.95;60.73;96196.25;618790;229;65072;-65
2022/01/05 04:23:49;;;;;;;;;;;;;;;25.94;60.56;96194.66;618786;229;66906;-65
2022/01/05 04:26:16;;;;;;;;;;;;;;;25.93;60.66;96203.85;618828;229;66989;-65
2022/01/05 04:28:44;;;;;;;;;;;;;;;25.95;60.65;96212.41;618778;229;65019;-63
2022/01/05 04:31:11;;;;;;;;;;;;;;;25.91;61.15;96204.95;618810;229;67284;-63
2022/01/05 04:33:39;;;;;;;;;;;;;;;25.90;61.75;96210.67;618778;229;67067;-63
2022/01/05 04:36:07;;;;;;;;;;;;;;;25.90;61.26;96210.67;618784;229;64903;-63
2022/01/05 04:38:35;;;;;;;;;;;;;;;25.89;60.21;96206.37;618781;229;67188;-63
2022/01/05 04:41:02;;;;;;;;;;;;;;;25.86;62.39;96210.53;618787;229;67005;-63
2022/01/05 04:43:30;;;;;;;;;;;;;;;25.87;60.58;96209.41;618812;229;62697;-63
2022/01/05 04:45:57;;;;;;;;;;;;;;;25.88;60.89;96215.58;618704;229;64756;-63
2022/01/05 04:48:25;;;;;;;;;;;;;;;25.87;61.26;96214.79;618747;229;64799;-63
2022/01/05 04:50:53;;;;;;;;;;;;;;;25.85;61.69;96198.17;618395;229;62934;-63
2022/01/05 04:53:20;;;;;;;;;;;;;;;25.84;61.68;96204.67;617615;229;64868;-63
2022/01/05 04:55:48;;;;;;;;;;;;;;;25.84;61.41;96201.98;617680;229;64986;-63
2022/01/05 04:58:15;;;;;;;;;;;;;;;25.84;61.79;96218.13;617606;229;65084;-63
2022/01/05 05:00:43;;;;;;;;;;;;;;;25.83;61.50;96221.91;617612;229;67206;-63
2022/01/05 05:03:10;;;;;;;;;;;;;;;25.81;61.72;96220.63;617637;229;66997;-65
2022/01/05 05:05:37;;;;;;;;;;;;;;;25.79;62.24;96220.17;617679;229;65051;-65
2022/01/05 05:08:05;;;;;;;;;;;;;;;25.82;61.32;96220.31;617685;229;67312;-63
2022/01/05 05:10:33;;;;;;;;;;;;;;;25.81;60.44;96223.31;617669;229;67068;-63
2022/01/05 05:13:02;;;;;;;;;;;;;;;25.81;61.70;96232.20;617639;229;65009;-63
2022/01/05 05:15:30;;;;;;;;;;;;;;;25.80;60.91;96227.91;617510;228;67098;-63
2022/01/05 05:17:58;;;;;;;;;;;;;;;25.79;61.36;96215.58;617625;229;67432;-63
2022/01/05 05:20:25;;;;;;;;;;;;;;;25.78;62.46;96223.96;617609;229;65059;-63
2022/01/05 05:22:52;;;;;;;;;;;;;;;25.74;62.38;96231.11;617602;229;67086;-63
2022/01/05 05:25:20;;;;;;;;;;;;;;;25.69;62.31;96232.84;617646;229;66901;-64
2022/01/05 05:27:47;;;;;;;;;;;;;;;25.72;62.21;96230.63;617661;229;63624;-64
2022/01/05 05:30:15;;;;;;;;;;;;;;;25.76;61.88;96232.38;617651;229;67247;-61
2022/01/05 05:32:42;;;;;;;;;;;;;;;25.76;61.30;96220.82;617683;229;66904;-61
2022/01/05 05:35:11;;;;;;;;;;;;;;;25.73;61.82;96219.56;617748;229;64981;-61
2022/01/05 05:37:38;;;;;;;;;;;;;;;25.72;63.30;96214.48;617649;229;64624;-61
2022/01/05 05:40:06;;;;;;;;;;;;;;;25.68;62.79;96209.75;617683;229;64861;-63
2022/01/05 05:42:34;;;;;;;;;;;;;;;25.68;62.66;96215.13;617611;229;65358;-63
2022/01/05 05:45:01;;;;;;;;;;;;;;;25.72;61.23;96211.80;617673;229;67414;-63
2022/01/05 05:47:28;;;;;;;;;;;;;;;25.72;61.65;96211.80;617720;229;66901;-63
2022/01/05 05:49:56;;;;;;;;;;;;;;;25.73;62.61;96207.98;617637;229;65048;-63
2022/01/05 05:52:23;;;;;;;;;;;;;;;25.72;61.98;96209.11;617667;229;67235;-63
2022/01/05 05:54:52;;;;;;;;;;;;;;;25.71;61.86;96218.30;617666;229;64840;-66
2022/01/05 05:57:20;;;;;;;;;;;;;;;25.69;62.60;96214.01;617708;229;62707;-66
2022/01/05 05:59:48;;;;;;;;;;;;;;;25.74;61.33;96223.82;617804;229;64328;-66
2022/01/05 06:02:15;;;;;;;;;;;;;;;25.75;62.03;96214.63;617686;229;64455;-66
2022/01/05 06:04:43;;;;;;;;;;;;;;;25.73;60.87;96216.88;617691;229;63027;-65
2022/01/05 06:07:10;;;;;;;;;;;;;;;25.75;61.14;96224.61;617686;229;64782;-65
2022/01/05 06:09:38;;;;;;;;;;;;;;;25.74;61.94;96226.52;617657;229;64575;-65
2022/01/05 06:12:06;;;;;;;;;;;;;;;25.73;62.68;96227.63;617766;229;62815;-65
2022/01/05 06:14:33;;;;;;;;;;;;;;;25.73;62.71;96229.51;617748;229;66752;-65
2022/01/05 06:17:01;;;;;;;;;;;;;;;25.72;63.49;96231.42;617712;229;66875;-66
2022/01/05 06:19:28;;;;;;;;;;;;;;;25.78;62.02;96230.16;617670;229;64963;-66
2022/01/05 06:21:56;;;;;;;;;;;;;;;25.77;61.68;96231.25;617706;229;64778;-65
2022/01/05 06:24:23;;;;;;;;;;;;;;;25.76;62.23;96229.68;617666;229;66788;-65
2022/01/05 06:26:52;;;;;;;;;;;;;;;25.82;61.27;96236.47;617705;229;64943;-65
2022/01/05 06:29:20;;;;;;;;;;;;;;;25.80;63.51;96241.38;617628;229;67331;-70
2022/01/05 06:31:48;;;;;;;;;;;;;;;25.78;63.06;96229.34;617563;229;67219;-71
2022/01/05 06:34:15;;;;;;;;;;;;;;;25.81;61.12;96228.70;617693;229;63073;-72
2022/01/05 06:36:43;;;;;;;;;;;;;;;25.87;60.46;96239.02;617603;229;67181;-72
2022/01/05 06:39:11;;;;;;;;;;;;;;;25.88;61.00;96235.20;617642;229;66917;-72
2022/01/05 06:41:39;;;;;;;;;;;;;;;25.89;63.25;96227.91;617699;229;63550;-71
2022/01/05 06:44:08;;;;;;;;;;;;;;;25.89;61.76;96227.91;617712;229;64751;-72
2022/01/05 06:46:35;;;;;;;;;;;;;;;25.89;61.54;96223.34;617688;229;66930;-69
2022/01/05 06:49:03;;;;;;;;;;;;;;;25.88;61.96;96227.13;617723;229;64875;-69
2022/01/05 06:51:30;;;;;;;;;;;;;;;25.91;61.57;96231.86;617654;229;65613;-64
2022/01/05 06:53:58;;;;;;;;;;;;;;;25.93;61.79;96244.23;617611;229;66971;-64
2022/01/05 06:56:25;;;;;;;;;;;;;;;25.95;61.18;96245.49;617650;229;62944;-65
2022/01/05 06:58:53;;;;;;;;;;;;;;;25.95;61.92;96233.94;617731;229;64993;-62
2022/01/05 07:01:21;;;;;;;;;;;;;;;25.90;63.24;96235.68;618617;227;64864;-62
2022/01/05 07:03:48;;;;;;;;;;;;;;;25.83;62.88;96237.25;624634;227;62573;-61
2022/01/05 07:06:16;;;;;;;;;;;;;;;25.86;63.57;96232.06;624617;227;67423;-62
2022/01/05 07:08:43;;;;;;;;;;;;;;;25.86;61.97;96232.06;624600;227;64812;-62
2022/01/05 07:11:11;;;;;;;;;;;;;;;25.89;61.75;96236.80;624552;227;62772;-62
2022/01/05 07:13:38;;;;;;;;;;;;;;;25.90;62.21;96229.51;624665;227;64549;-62
2022/01/05 07:16:06;;;;;;;;;;;;;;;25.91;60.93;96217.62;624662;227;64868;-61
2022/01/05 07:18:33;;;;;;;;;;;;;;;25.93;61.42;96222.70;624789;227;62995;-60
2022/01/05 07:21:01;;;;;;;;;;;;;;;25.92;61.49;96229.98;624694;227;65159;-61
2022/01/05 07:23:28;;;;;;;;;;;;;;;25.94;60.90;96233.13;624678;227;64786;-62
2022/01/05 07:25:55;;;;;;;;;;;;;;;25.96;63.00;96227.44;624713;227;62858;-62
2022/01/05 07:28:23;;;;;;;;;;;;;;;25.96;61.41;96227.44;624678;227;64959;-62
2022/01/05 07:30:50;;;;;;;;;;;;;;;25.99;61.38;96229.48;624687;227;64759;-61
2022/01/05 07:33:18;;;;;;;;;;;;;;;25.98;61.24;96222.52;624673;227;64899;-62
2022/01/05 07:35:45;;;;;;;;;;;;;;;25.99;61.13;96227.56;624647;227;67136;-62
2022/01/05 07:38:13;;;;;;;;;;;;;;;25.99;61.43;96216.02;624688;227;66819;-64
2022/01/05 07:40:40;;;;;;;;;;;;;;;25.99;61.40;96214.11;624667;227;65189;-62
2022/01/05 07:43:08;;;;;;;;;;;;;;;26.01;61.03;96211.11;624674;227;67230;-62
2022/01/05 07:45:36;;;;;;;;;;;;;;;26.03;61.52;96222.34;624716;227;65087;-62
2022/01/05 07:48:04;;;;;;;;;;;;;;;26.01;61.24;96222.66;624736;227;62899;-61
2022/01/05 07:50:31;;;;;;;;;;;;;;;26.01;61.78;96229.95;624629;226;67122;-59
2022/01/05 07:53:04;;;;;;;;;;;;;;;26.01;61.44;96213.80;624767;227;66710;-62
2022/01/05 07:55:30;;;;;;;;;;;;;;;25.99;62.69;96216.80;624448;226;63037;-62
2022/01/05 07:58:03;;;;;;;;;;;;;;;25.99;62.43;96216.80;624617;227;65053;-62
2022/01/05 08:00:27;;;;;;;;;;;;;;;25.99;61.54;96208.72;624315;226;65053;-59
2022/01/05 08:02:55;;;;;;;;;;;;;;;26.01;61.36;96211.89;624744;227;62752;-60
2022/01/05 08:05:22;;;;;;;;;;;;;;;26.03;61.67;96215.05;624714;227;64679;-60
2022/01/05 08:07:50;;;;;;;;;;;;;;;26.03;62.00;96215.05;624821;227;65014;-60
2022/01/05 08:10:17;;;;;;;;;;;;;;;26.06;60.76;96213.63;624731;227;65323;-61
2022/01/05 08:12:45;;;;;;;;;;;;;;;26.05;62.21;96210.12;624703;227;65290;-61
2022/01/05 08:15:13;;;;;;;;;;;;;;;26.06;62.07;96206.33;624739;227;64933;-63
2022/01/05 08:17:40;;;;;;;;;;;;;;;26.01;61.86;96206.50;624720;227;64990;-64
2022/01/05 08:20:10;;;;;;;;;;;;;;;26.04;59.81;96205.86;624705;227;67132;-61
2022/01/05 08:22:42;;;;;;;;;;;;;;;26.04;59.89;96205.86;624799;227;67100;-64
2022/01/05 08:25:10;;;;;;;;;;;;;;;26.03;60.67;96198.12;624518;227;65024;-65
2022/01/05 08:27:45;;;;;;;;;;;;;;;26.03;60.72;96198.12;624803;227;67023;-66
2022/01/05 08:30:08;;;;;;;;;;;;;;;26.04;60.23;96194.30;624553;226;64670;-65
2022/01/05 08:32:35;;;;;;;;;;;;;;;26.07;61.01;96199.03;624624;227;64860;-66
2022/01/05 08:35:03;;;;;;;;;;;;;;;26.05;58.96;96195.88;624748;227;67176;-62
2022/01/05 08:37:30;;;;;;;;;;;;;;;26.00;60.22;96191.48;624707;227;66953;-65
2022/01/05 08:39:58;;;;;;;;;;;;;;;26.06;58.29;96197.47;624689;227;65009;-66
2022/01/05 08:42:25;;;;;;;;;;;;;;;26.09;58.99;96194.12;624692;227;67292;-66
2022/01/05 08:44:53;;;;;;;;;;;;;;;26.10;59.28;96198.39;624757;227;67090;-66
2022/01/05 08:47:20;;;;;;;;;;;;;;;26.10;60.18;96182.23;624703;227;64922;-66
2022/01/05 08:49:48;;;;;;;;;;;;;;;26.04;59.90;96183.53;624621;227;67163;-67
2022/01/05 08:52:15;;;;;;;;;;;;;;;26.09;59.07;96180.66;624658;226;66792;-66
2022/01/05 08:54:43;;;;;;;;;;;;;;;26.11;59.45;96183.83;624658;227;65100;-66
2022/01/05 08:57:10;;;;;;;;;;;;;;;26.07;59.60;96177.50;624747;227;67183;-65
2022/01/05 08:59:38;;;;;;;;;;;;;;;26.11;58.33;96179.23;624658;227;67177;-67
2022/01/05 09:02:05;;;;;;;;;;;;;;;26.15;60.39;96173.19;624707;227;65084;-64
2022/01/05 09:04:33;;;;;;;;;;;;;;;26.12;59.33;96174.63;624685;227;64975;-65
2022/01/05 09:07:00;;;;;;;;;;;;;;;26.12;59.51;96169.23;624739;227;65632;-64
2022/01/05 09:09:28;;;;;;;;;;;;;;;26.12;60.10;96161.16;624683;227;63023;-65
2022/01/05 09:11:55;;;;;;;;;;;;;;;26.10;58.51;96166.08;624594;227;66993;-65
2022/01/05 09:14:23;;;;;;;;;;;;;;;26.11;59.08;96151.52;624738;227;66865;-68
2022/01/05 09:16:52;;;;;;;;;;;;;;;26.10;59.92;96144.53;624669;227;64832;-66
2022/01/05 09:19:19;;;;;;;;;;;;;;;26.12;57.22;96136.92;624714;227;64767;-64
2022/01/05 09:21:49;;;;;;;;;;;;;;;26.16;59.54;96134.36;624692;227;64931;-64
2022/01/05 09:24:17;;;;;;;;;;;;;;;26.16;57.76;96134.36;624634;227;65105;-65
2022/01/05 09:26:44;;;;;;;;;;;;;;;26.20;60.75;96127.23;624785;227;67477;-65
2022/01/05 09:29:12;;;;;;;;;;;;;;;26.21;59.95;96126.10;624669;227;67012;-66
2022/01/05 09:31:39;;;;;;;;;;;;;;;26.24;60.11;96122.75;624656;227;64982;-65
2022/01/05 09:34:07;;;;;;;;;;;;;;;26.27;59.57;96116.70;624630;227;67183;-64
2022/01/05 09:36:40;;;;;;;;;;;;;;;26.28;60.84;96119.09;624662;227;67272;-65
2022/01/05 09:42:00;;;;;;;;;;;;;;;26.32;61.52;96100.36;624769;227;65154;-65
2022/01/05 09:44:32;;;;;;;;;;;;;;;26.33;61.32;96091.97;624659;227;67009;-63
2022/01/05 09:47:10;;;;;;;;;;;;;;;26.38;61.32;96090.17;624724;227;65053;-65
2022/01/05 09:49:39;;;;;;;;;;;;;;;26.38;61.17;96084.79;624429;226;67217;-64
2022/01/05 09:52:08;;;;;;;;;;;;;;;26.36;61.20;96071.66;625488;226;65153;-64
2022/01/05 09:54:36;;;;;;;;;;;;;;;26.39;62.08;96078.30;625796;226;64843;-64
2022/01/05 09:57:05;;;;;;;;;;;;;;;26.42;62.44;96074.95;625934;226;65029;-64
2022/01/05 09:59:35;;;;;;;;;;;;;;;26.43;62.72;96065.73;625614;226;66996;-64
2022/01/05 10:02:03;;;;;;;;;;;;;;;26.45;61.77;96071.59;625733;226;65057;-64
2022/01/05 10:04:30;;;;;;;;;;;;;;;26.43;61.34;96060.35;625809;226;67181;-64
2022/01/05 10:06:58;;;;;;;;;;;;;;;26.45;62.28;96058.13;625852;226;66444;-64
2022/01/05 10:09:25;;;;;;;;;;;;;;;26.48;63.04;96062.84;625753;226;64900;-64
2022/01/05 10:11:53;;;;;;;;;;;;;;;26.47;61.43;96055.90;625881;226;66721;-65
2022/01/05 10:14:20;;;;;;;;;;;;;;;26.47;62.37;96037.82;625835;226;67076;-64
2022/01/05 10:17:07;;;;;;;;;;;;;;;26.47;62.53;96047.81;625834;226;64890;-64
2022/01/05 10:19:35;;;;;;;;;;;;;;;26.46;63.16;96043.52;625803;226;65394;-65
2022/01/05 10:22:04;;;;;;;;;;;;;;;26.46;63.16;96030.84;625875;226;65451;-64
2022/01/05 10:24:42;;;;;;;;;;;;;;;26.46;63.24;96036.23;625904;226;65041;-64
2022/01/05 10:27:11;;;;;;;;;;;;;;;26.47;62.33;96028.95;625784;226;66975;-65
2022/01/05 10:29:40;;;;;;;;;;;;;;;26.47;63.27;96028.95;625492;226;67085;-64
2022/01/05 10:32:08;;;;;;;;;;;;;;;26.46;63.57;96028.14;625558;226;64078;-63
2022/01/05 10:34:36;;;;;;;;;;;;;;;26.47;62.85;96023.56;625791;226;64560;-63
2022/01/05 10:37:08;;;;;;;;;;;;;;;26.51;62.40;96019.11;625924;226;66973;-63
2022/01/05 10:39:42;;;;;;;;;;;;;;;26.51;62.43;96013.72;625922;226;63067;-63
2022/01/05 10:42:12;;;;;;;;;;;;;;;26.53;62.79;96016.88;625238;226;43728;-64
2022/01/05 10:44:45;;;;;;;;;;;;;;;26.50;63.13;96020.20;625767;226;64870;-64
2022/01/05 10:47:09;;;;;;;;;;;;;;;26.50;63.00;96017.52;625544;226;66770;-67
2022/01/05 10:49:39;;;;;;;;;;;;;;;26.53;62.53;96008.80;625673;226;67207;-65
2022/01/05 10:52:22;;;;;;;;;;;;;;;26.50;62.11;96004.05;625701;226;67031;-63
2022/01/05 10:54:50;;;;;;;;;;;;;;;26.55;63.52;96010.05;622502;226;65024;-63
2022/01/05 10:57:18;;;;;;;;;;;;;;;26.55;62.68;96001.18;624809;226;67164;-63
2022/01/05 10:59:47;;;;;;;;;;;;;;;26.53;62.57;96006.88;625853;226;67060;-63
2022/01/05 11:02:29;;;;;;;;;;;;;;;26.55;62.46;96003.88;625772;224;62895;-63
2022/01/05 11:04:58;;;;;;;;;;;;;;;26.56;62.85;95994.66;625900;226;65064;-63
2022/01/05 11:07:31;;;;;;;;;;;;;;;26.51;63.19;95997.55;625452;226;66876;-63
2022/01/05 11:10:01;;;;;;;;;;;;;;;26.55;62.02;95995.79;625821;226;64872;-62
2022/01/05 11:12:40;;;;;;;;;;;;;;;26.48;61.92;95996.28;625824;226;66969;-62
2022/01/05 11:15:18;;;;;;;;;;;;;;;26.50;62.56;95990.57;625916;226;65812;-63
2022/01/05 11:18:04;;;;;;;;;;;;;;;26.44;62.43;95989.21;619585;226;65127;-62
2022/01/05 11:20:31;;;;;;;;;;;;;;;26.42;62.44;95988.75;625769;226;65200;-62
2022/01/05 11:22:59;;;;;;;;;;;;;;;26.42;63.36;95988.75;625932;226;64456;-63
2022/01/05 11:25:26;;;;;;;;;;;;;;;26.43;62.35;95984.92;625530;226;62920;-63
2022/01/05 11:27:55;;;;;;;;;;;;;;;26.46;62.47;95987.73;623177;226;65034;-63
2022/01/05 11:30:23;;;;;;;;;;;;;;;26.46;62.41;95981.56;625732;226;65241;-63
2022/01/05 11:32:50;;;;;;;;;;;;;;;26.47;62.19;95975.08;625758;226;65215;-62
2022/01/05 11:35:18;;;;;;;;;;;;;;;26.43;62.49;95969.54;625930;226;67222;-62
2022/01/05 11:37:47;;;;;;;;;;;;;;;26.38;61.88;95952.80;625622;226;66929;-62
2022/01/05 11:40:14;;;;;;;;;;;;;;;26.45;61.71;95956.53;625750;226;64932;-62
2022/01/05 11:42:44;;;;;;;;;;;;;;;26.44;61.88;95963.05;625722;226;67166;-64
2022/01/05 11:45:12;;;;;;;;;;;;;;;26.45;61.47;95958.45;625847;226;67002;-64
2022/01/05 11:47:41;;;;;;;;;;;;;;;26.47;62.08;95958.91;625891;226;65069;-64
2022/01/05 11:50:17;;;;;;;;;;;;;;;26.47;62.05;95953.52;625918;226;64721;-64
2022/01/05 11:52:55;;;;;;;;;;;;;;;26.46;62.05;95949.23;624594;226;66853;-64
2022/01/05 11:55:23;;;;;;;;;;;;;;;26.47;62.12;95948.13;624659;227;65022;-64
2022/01/05 11:58:09;;;;;;;;;;;;;;;26.48;62.25;95947.00;624725;227;67257;-64
2022/01/05 12:00:36;;;;;;;;;;;;;;;26.47;61.91;95948.13;624629;227;64864;-63
2022/01/05 12:03:03;;;;;;;;;;;;;;;26.47;60.85;95942.75;624670;227;62966;-63
2022/01/05 12:05:49;;;;;;;;;;;;;;;26.44;61.74;95933.42;624692;227;64908;-63
2022/01/05 12:08:24;;;;;;;;;;;;;;;26.46;61.88;95933.07;624734;227;65643;-63
2022/01/05 12:10:52;;;;;;;;;;;;;;;26.47;62.19;95929.27;621583;227;62728;-64
2022/01/05 12:13:21;;;;;;;;;;;;;;;26.46;62.45;95924.98;624655;227;67108;-66
2022/01/05 12:15:52;;;;;;;;;;;;;;;26.35;59.84;95925.43;624369;226;66918;-63
2022/01/05 12:18:27;;;;;;;;;;;;;;;26.41;60.59;95922.50;624682;227;65056;-63
2022/01/05 12:20:57;;;;;;;;;;;;;;;26.43;61.55;95915.66;624615;226;65142;-64
2022/01/05 12:23:26;;;;;;;;;;;;;;;26.45;61.28;95913.43;624729;227;67006;-63
2022/01/05 12:26:10;;;;;;;;;;;;;;;26.45;62.60;95918.82;624731;227;63803;-62
2022/01/05 12:28:38;;;;;;;;;;;;;;;26.47;60.46;95921.20;624172;226;67308;-63
2022/01/05 12:31:09;;;;;;;;;;;;;;;26.45;62.98;95909.95;624017;227;68699;-62
2022/01/05 12:33:43;;;;;;;;;;;;;;;26.46;62.91;95920.38;624731;226;63972;-65
2022/01/05 12:36:11;;;;;;;;;;;;;;;26.46;61.10;95914.21;624759;227;67061;-64
2022/01/05 12:38:48;;;;;;;;;;;;;;;26.46;62.93;95908.83;624724;227;66874;-65
2022/01/05 12:41:27;;;;;;;;;;;;;;;26.46;62.16;95908.83;624672;227;65090;-64
2022/01/05 12:43:56;;;;;;;;;;;;;;;26.45;63.45;95904.56;624708;227;65058;-65
2022/01/05 12:46:34;;;;;;;;;;;;;;;26.43;63.60;95894.11;624682;227;67383;-63
2022/01/05 12:49:04;;;;;;;;;;;;;;;26.44;62.98;95897.62;624676;227;65046;-64
2022/01/05 12:51:37;;;;;;;;;;;;;;;26.43;61.28;95896.02;624710;226;64974;-65
2022/01/05 12:54:21;;;;;;;;;;;;;;;26.42;62.44;95897.94;624788;227;67046;-64
2022/01/05 12:57:04;;;;;;;;;;;;;;;26.43;63.44;95893.33;624529;227;65264;-64
2022/01/05 12:59:33;;;;;;;;;;;;;;;26.42;61.73;95894.46;624661;227;66953;-66